Time;durP1;ratioP1;P1;durP2;ratioP2;P2;SDS_P1;SDS_P2;PMS_P1;PMS_P2;Temp;Humidity;BMP_temperature;BMP_pressure;BME280_temperature;BME280_humidity;BME280_pressure;Samples;Min_cycle;Max_cycle;Signal;HPM_P1;HPM_P2
2023/01/04 00:01:41;;;;;;;2.22;1.80;;;;;;;2.32;85.71;100991.44;5093590;28;20044;-65
2023/01/04 00:04:10;;;;;;;2.57;2.37;;;;;;;2.26;86.51;100983.56;5093609;28;20040;-65
2023/01/04 00:06:39;;;;;;;1.10;1.08;;;;;;;2.28;85.99;100989.53;5093857;28;20559;-65
2023/01/04 00:09:08;;;;;;;2.70;2.23;;;;;;;2.29;86.59;100993.78;5095659;28;20097;-65
2023/01/04 00:11:38;;;;;;;1.93;1.83;;;;;;;2.21;86.50;100990.00;5097666;28;20040;-65
2023/01/04 00:14:07;;;;;;;1.73;1.63;;;;;;;2.21;85.72;100990.00;5097756;28;20098;-65
2023/01/04 00:16:36;;;;;;;0.70;0.70;;;;;;;2.17;86.84;100987.22;5097638;28;20118;-65
2023/01/04 00:19:05;;;;;;;2.03;1.73;;;;;;;2.13;85.77;100980.31;5097587;28;20283;-65
2023/01/04 00:21:33;;;;;;;1.50;1.40;;;;;;;2.07;86.50;100983.34;5097531;28;20072;-64
2023/01/04 00:24:02;;;;;;;2.50;1.73;;;;;;;1.97;86.33;100978.59;5097542;28;20505;-65
2023/01/04 00:26:34;;;;;;;2.15;1.95;;;;;;;1.99;86.43;100987.97;5097841;28;20113;-64
2023/01/04 00:29:07;;;;;;;1.52;1.42;;;;;;;1.99;86.26;100982.09;5097461;28;20493;-64
2023/01/04 00:31:35;;;;;;;1.35;1.25;;;;;;;1.94;86.37;100975.94;5097340;28;20075;-65
2023/01/04 00:34:06;;;;;;;4.50;2.10;;;;;;;1.95;86.66;100982.69;5097664;28;20516;-64
2023/01/04 00:36:36;;;;;;;1.88;1.67;;;;;;;1.98;86.23;100990.41;5097347;28;20094;-65
2023/01/04 00:39:08;;;;;;;1.47;1.37;;;;;;;1.90;86.18;100986.59;5097268;28;20113;-65
2023/01/04 00:41:40;;;;;;;1.90;1.80;;;;;;;1.81;85.96;100986.09;5097466;28;20468;-65
2023/01/04 00:44:31;;;;;;;2.72;2.53;;;;;;;1.74;86.39;100989.94;5097376;28;20124;-64
2023/01/04 00:47:01;;;;;;;4.45;3.10;;;;;;;1.67;86.31;100992.03;5097438;28;20051;-65
2023/01/04 00:49:31;;;;;;;0.85;0.85;;;;;;;1.64;86.19;100992.72;5097124;28;20051;-64
2023/01/04 00:52:00;;;;;;;1.70;1.60;;;;;;;1.64;86.64;100996.88;5096884;28;20086;-64
2023/01/04 00:54:29;;;;;;;2.95;2.25;;;;;;;1.65;86.00;100998.63;5096969;28;20131;-65
2023/01/04 00:56:58;;;;;;;0.53;0.53;;;;;;;1.61;86.62;101001.78;5096947;28;20048;-64
2023/01/04 00:59:27;;;;;;;1.65;1.55;;;;;;;1.58;85.60;101001.59;5096886;28;20063;-65
2023/01/04 01:01:57;;;;;;;1.15;1.05;;;;;;;1.53;86.54;101005.50;5096749;28;20137;-65
2023/01/04 01:04:26;;;;;;;2.17;1.98;;;;;;;1.48;86.24;101005.25;5096776;28;20052;-64
2023/01/04 01:06:55;;;;;;;1.80;1.70;;;;;;;1.48;85.93;101005.25;5097059;28;20123;-64
2023/01/04 01:09:24;;;;;;;1.13;1.10;;;;;;;1.56;86.35;101003.16;5096704;28;20042;-65
2023/01/04 01:11:53;;;;;;;0.93;0.93;;;;;;;1.55;85.95;101006.44;5096826;28;20494;-65
2023/01/04 01:14:25;;;;;;;0.98;0.98;;;;;;;1.52;85.88;100996.22;5096540;28;20362;-65
2023/01/04 01:16:54;;;;;;;0.60;0.60;;;;;;;1.52;86.27;101003.75;5096856;28;20402;-65
2023/01/04 01:19:28;;;;;;;1.23;1.17;;;;;;;1.50;85.89;101007.84;5096465;28;20085;-64
2023/01/04 01:21:58;;;;;;;2.47;2.28;;;;;;;1.45;86.54;101009.22;5096456;28;20079;-64
2023/01/04 01:24:28;;;;;;;0.70;0.70;;;;;;;1.41;86.35;101007.31;5096277;28;20126;-64
2023/01/04 01:26:57;;;;;;;5.88;2.63;;;;;;;1.37;86.84;101016.31;5096330;28;20090;-64
2023/01/04 01:29:26;;;;;;;1.42;1.33;;;;;;;1.35;85.94;101003.69;5096266;28;20048;-64
2023/01/04 01:31:54;;;;;;;0.70;0.70;;;;;;;1.31;86.54;101019.38;5096489;28;20040;-65
2023/01/04 01:34:23;;;;;;;2.60;2.03;;;;;;;1.23;86.78;101002.97;5096156;28;20036;-65
2023/01/04 01:36:53;;;;;;;7.17;2.73;;;;;;;1.21;86.16;101002.03;5096143;28;20281;-65
2023/01/04 01:39:22;;;;;;;2.47;2.17;;;;;;;1.27;86.95;101004.88;5096112;28;20044;-65
2023/01/04 01:41:51;;;;;;;0.73;0.73;;;;;;;1.15;86.87;100998.31;5096041;28;20071;-65
2023/01/04 01:44:49;;;;;;;1.30;1.23;;;;;;;1.10;86.17;101003.06;5096260;28;20461;-65
2023/01/04 01:47:21;;;;;;;1.90;1.77;;;;;;;1.17;86.53;101006.78;5089474;28;20048;-65
2023/01/04 01:49:53;;;;;;;2.35;2.25;;;;;;;1.10;86.25;101000.56;5095925;28;20048;-64
2023/01/04 01:52:30;;;;;;;1.17;1.10;;;;;;;1.01;86.94;100989.94;5096201;28;20040;-65
2023/01/04 01:55:02;;;;;;;1.02;0.98;;;;;;;1.11;86.36;100994.72;5096316;28;20426;-65
2023/01/04 01:57:36;;;;;;;0.93;0.90;;;;;;;1.06;86.73;100993.59;5095833;28;20048;-64
2023/01/04 02:00:09;;;;;;;1.73;1.63;;;;;;;1.00;87.07;100997.41;5095778;28;20147;-64
2023/01/04 02:02:52;;;;;;;1.45;1.35;;;;;;;0.99;86.78;101000.69;5096293;28;20486;-64
2023/01/04 02:05:22;;;;;;;0.88;0.88;;;;;;;0.86;86.30;100996.63;5095958;28;20044;-65
2023/01/04 02:07:53;;;;;;;1.35;1.25;;;;;;;0.89;86.40;100994.25;5095584;28;20060;-64
2023/01/04 02:10:23;;;;;;;2.92;2.70;;;;;;;0.95;86.79;100994.63;5095803;28;20052;-64
2023/01/04 02:12:52;;;;;;;2.95;2.55;;;;;;;0.91;86.30;100996.88;5095770;28;20044;-64
2023/01/04 02:15:27;;;;;;;1.40;1.30;;;;;;;0.92;86.65;101003.63;5095700;28;20071;-64
2023/01/04 02:18:04;;;;;;;2.45;1.92;;;;;;;0.87;86.76;101000.84;5095695;28;20516;-64
2023/01/04 02:20:43;;;;;;;0.77;0.77;;;;;;;0.86;86.29;100991.59;5095324;28;20055;-64
2023/01/04 02:23:39;;;;;;;1.10;1.07;;;;;;;0.85;86.88;100986.44;5095348;28;20094;-64
2023/01/04 02:26:36;;;;;;;2.40;2.20;;;;;;;0.81;86.71;100992.09;5095478;28;20363;-63
2023/01/04 02:29:29;;;;;;;0.60;0.60;;;;;;;0.79;86.86;100981.94;5094994;28;20052;-63
2023/01/04 02:32:03;;;;;;;0.88;0.88;;;;;;;0.77;86.85;100983.47;5110431;28;20540;-63
2023/01/04 02:34:43;;;;;;;1.70;1.60;;;;;;;0.74;86.43;100983.31;5095336;28;20131;-64
2023/01/04 02:37:19;;;;;;;1.67;1.52;;;;;;;0.68;86.37;100987.97;5095036;28;20051;-63
2023/01/04 02:39:57;;;;;;;5.85;1.75;;;;;;;0.66;87.05;100995.44;5094935;28;20559;-63
2023/01/04 02:45:20;;;;;;;3.22;2.95;;;;;;;0.75;86.97;100990.06;5095102;28;20079;-63
2023/01/04 02:50:30;;;;;;;1.75;1.65;;;;;;;0.70;87.05;100980.53;5094795;28;20054;-63
2023/01/04 02:53:03;;;;;;;1.02;1.02;;;;;;;0.72;86.60;100979.81;5094718;28;20478;-63
2023/01/04 02:55:46;;;;;;;3.13;2.70;;;;;;;0.76;86.85;100979.25;5094635;28;20043;-63
2023/01/04 02:58:32;;;;;;;3.08;2.03;;;;;;;0.76;86.65;100974.22;5094928;28;20130;-63
2023/01/04 03:06:58;;;;;;;0.65;0.65;;;;;;;0.61;86.78;100980.84;5094491;28;20437;-63
2023/01/04 03:09:32;;;;;;;3.30;3.00;;;;;;;0.58;87.08;100981.53;5094383;28;20509;-62
2023/01/04 03:14:48;;;;;;;0.85;0.85;;;;;;;0.63;87.40;100980.16;5094339;28;20044;-63
2023/01/04 03:17:21;;;;;;;0.77;0.77;;;;;;;0.66;86.79;100979.47;5094182;28;20079;-63
2023/01/04 03:19:56;;;;;;;8.35;2.15;;;;;;;0.61;86.63;100971.69;5110001;28;20040;-63
2023/01/04 03:36:17;;;;;;;1.73;1.50;;;;;;;0.42;86.95;100978.91;5093919;28;20074;-63
2023/01/04 03:49:57;;;;;;;4.68;1.83;;;;;;;0.37;86.97;100969.34;5093807;28;20080;-63
2023/01/04 03:52:31;;;;;;;1.55;1.45;;;;;;;0.37;86.68;100974.38;5093642;28;20482;-63
2023/01/04 03:55:02;;;;;;;3.22;2.05;;;;;;;0.32;87.19;100975.72;5094031;28;20489;-63
2023/01/04 03:57:32;;;;;;;2.08;1.90;;;;;;;0.24;86.84;100962.69;5093621;28;20044;-63
2023/01/04 04:00:05;;;;;;;1.40;1.30;;;;;;;0.20;87.23;100967.44;5093901;28;20383;-63
2023/01/04 04:02:35;;;;;;;1.58;1.48;;;;;;;0.19;86.79;100968.25;5093656;28;20075;-63
2023/01/04 04:10:24;;;;;;;1.48;1.38;;;;;;;0.14;87.09;100969.59;5093580;28;19920;-63
2023/01/04 04:12:53;;;;;;;2.20;2.00;;;;;;;0.10;86.67;100972.72;5093798;28;20047;-63
2023/01/04 04:15:22;;;;;;;4.15;2.78;;;;;;;0.14;86.80;100970.47;5093504;28;20076;-63
2023/01/04 04:17:51;;;;;;;1.40;1.30;;;;;;;0.23;86.77;100980.19;5093477;28;20516;-63
2023/01/04 04:20:19;;;;;;;3.85;3.25;;;;;;;0.21;86.74;100981.75;5093448;28;20040;-63
2023/01/04 04:22:50;;;;;;;2.03;1.93;;;;;;;0.16;87.22;100978.09;5093757;28;20052;-63
2023/01/04 04:25:18;;;;;;;3.75;3.42;;;;;;;0.18;87.23;100981.56;5094018;28;20607;-63
2023/01/04 04:27:47;;;;;;;2.15;2.05;;;;;;;0.17;87.34;100979.84;5093125;28;20080;-63
2023/01/04 04:30:16;;;;;;;3.10;2.80;;;;;;;0.18;87.12;100977.41;5093368;28;20036;-63
2023/01/04 04:32:45;;;;;;;2.87;2.67;;;;;;;0.19;87.35;100970.75;5093265;28;20032;-63
2023/01/04 04:35:14;;;;;;;4.10;2.47;;;;;;;0.19;87.09;100971.63;5093333;28;20040;-63
2023/01/04 04:37:42;;;;;;;2.17;2.03;;;;;;;0.29;87.25;100975.56;5093231;28;20509;-63
2023/01/04 04:41:37;;;;;;;1.90;1.60;;;;;;;0.29;87.42;100970.53;5093275;28;20046;-63
2023/01/04 04:43:08;;;;;;;3.60;3.00;;;;;;;0.21;87.07;100974.22;5093111;28;20448;-63
2023/01/04 04:45:36;;;;;;;1.27;1.17;;;;;;;0.15;87.71;100976.34;5093197;28;20260;-63
2023/01/04 04:48:05;;;;;;;4.28;2.97;;;;;;;0.05;86.86;100974.06;5093694;28;20035;-63
2023/01/04 04:50:34;;;;;;;1.38;1.27;;;;;;;-0.02;87.32;100983.72;5093462;28;20040;-63
2023/01/04 04:53:03;;;;;;;10.38;4.95;;;;;;;-0.05;87.11;100978.50;5093045;28;20128;-62
2023/01/04 04:55:33;;;;;;;3.58;2.92;;;;;;;-0.03;87.11;100987.00;5095628;28;20072;-63
2023/01/04 04:58:03;;;;;;;3.20;2.92;;;;;;;0.00;86.87;100986.34;5097287;28;20075;-63
2023/01/04 05:00:32;;;;;;;2.43;1.90;;;;;;;-0.04;86.89;100982.75;5097450;28;20056;-63
2023/01/04 05:03:02;;;;;;;3.72;3.20;;;;;;;-0.10;86.83;100974.81;5096813;28;20280;-63
2023/01/04 05:05:31;;;;;;;1.88;1.77;;;;;;;-0.06;86.85;100966.75;5095602;28;20048;-63
2023/01/04 05:08:00;;;;;;;3.75;3.45;;;;;;;-0.09;86.94;100956.50;5096732;28;20119;-63
2023/01/04 05:10:29;;;;;;;3.77;2.63;;;;;;;-0.24;86.77;100968.09;5096600;28;20044;-63
2023/01/04 05:13:01;;;;;;;8.87;5.37;;;;;;;-0.26;86.68;100962.13;5096578;28;20180;-63
2023/01/04 05:15:33;;;;;;;5.63;3.78;;;;;;;-0.20;87.39;100957.50;5096910;28;20345;-63
2023/01/04 05:18:03;;;;;;;3.50;3.20;;;;;;;-0.16;86.88;100964.44;5096882;28;20066;-63
2023/01/04 05:20:33;;;;;;;5.15;4.68;;;;;;;-0.26;86.81;100961.25;5096703;28;20050;-63
2023/01/04 05:23:01;;;;;;;4.47;3.97;;;;;;;-0.28;87.15;100968.69;5096366;28;20090;-63
2023/01/04 05:25:31;;;;;;;1.80;1.70;;;;;;;-0.26;86.71;100967.13;5096357;28;20040;-63
2023/01/04 05:28:02;;;;;;;1.85;1.73;;;;;;;-0.20;87.05;100972.53;5096250;28;20075;-63
2023/01/04 05:33:10;;;;;;;5.68;3.30;;;;;;;-0.34;86.87;100970.81;5096420;28;20126;-63
2023/01/04 05:35:38;;;;;;;2.67;2.47;;;;;;;-0.30;86.70;100971.84;5096202;28;20072;-63
2023/01/04 05:38:07;;;;;;;1.40;1.33;;;;;;;-0.39;86.39;100974.66;5096111;28;20280;-63
2023/01/04 05:40:36;;;;;;;6.70;2.87;;;;;;;-0.39;86.59;100969.66;5096082;28;20074;-62
2023/01/04 05:43:06;;;;;;;5.33;3.70;;;;;;;-0.42;86.58;100959.44;5096063;28;20097;-62
2023/01/04 05:45:35;;;;;;;2.35;2.22;;;;;;;-0.41;86.69;100952.78;5096325;28;20367;-63
2023/01/04 05:48:04;;;;;;;0.88;0.88;;;;;;;-0.42;86.22;100954.41;5096291;28;20040;-62
2023/01/04 05:50:33;;;;;;;2.15;1.98;;;;;;;-0.42;86.59;100964.44;5096200;28;20040;-62
2023/01/04 05:53:05;;;;;;;6.53;3.50;;;;;;;-0.40;86.53;100962.91;5096157;28;20040;-62
2023/01/04 05:55:34;;;;;;;1.45;1.35;;;;;;;-0.32;86.84;100955.84;5095726;28;20037;-63
2023/01/04 05:58:03;;;;;;;3.70;2.95;;;;;;;-0.33;86.74;100944.94;5096116;28;20072;-62
2023/01/04 06:00:33;;;;;;;3.20;3.00;;;;;;;-0.41;86.66;100951.16;5095670;28;20074;-63
2023/01/04 06:03:02;;;;;;;3.25;3.00;;;;;;;-0.47;86.45;100948.22;5095990;28;20052;-63
2023/01/04 06:05:31;;;;;;;4.88;4.15;;;;;;;-0.57;86.39;100943.41;5095268;28;20071;-63
2023/01/04 06:08:00;;;;;;;3.28;3.05;;;;;;;-0.54;86.39;100948.63;5095097;28;20036;-63
2023/01/04 06:10:29;;;;;;;3.23;2.93;;;;;;;-0.51;86.50;100953.84;5096093;28;20046;-63
2023/01/04 06:12:57;;;;;;;1.27;1.17;;;;;;;-0.54;86.57;100948.63;5095414;28;20046;-63
2023/01/04 06:15:26;;;;;;;3.33;3.03;;;;;;;-0.54;86.34;100943.59;5095709;28;20113;-63
2023/01/04 06:17:56;;;;;;;3.23;2.53;;;;;;;-0.57;86.57;100943.41;5095653;28;20412;-62
2023/01/04 06:20:25;;;;;;;3.20;2.15;;;;;;;-0.61;86.41;100946.50;5095338;28;20048;-62
2023/01/04 06:22:54;;;;;;;1.58;1.45;;;;;;;-0.64;86.56;100941.28;5095365;28;20040;-62
2023/01/04 06:25:23;;;;;;;0.70;0.70;;;;;;;-0.64;86.35;100936.28;5095404;28;20036;-62
2023/01/04 06:27:51;;;;;;;1.50;1.40;;;;;;;-0.68;86.26;100945.25;5095218;28;20128;-62
2023/01/04 06:30:21;;;;;;;3.97;3.60;;;;;;;-0.71;86.04;100951.69;5095093;28;20084;-62
2023/01/04 06:32:49;;;;;;;2.20;2.00;;;;;;;-0.74;86.25;100948.97;5095243;28;20113;-62
2023/01/04 06:35:20;;;;;;;2.67;2.47;;;;;;;-0.77;86.12;100953.81;5095370;28;20036;-62
2023/01/04 06:37:48;;;;;;;4.38;3.22;;;;;;;-0.74;86.31;100954.88;5094968;28;20071;-62
2023/01/04 06:40:17;;;;;;;3.47;3.17;;;;;;;-0.68;86.31;100964.44;5094940;28;20051;-62
2023/01/04 06:42:46;;;;;;;5.05;4.20;;;;;;;-0.71;86.11;100964.22;5095114;28;20513;-62
2023/01/04 06:45:16;;;;;;;4.35;2.83;;;;;;;-0.78;86.32;100962.09;5094753;28;20089;-62
2023/01/04 06:47:46;;;;;;;3.65;3.28;;;;;;;-0.87;86.25;100951.47;5095059;28;20052;-62
2023/01/04 06:50:15;;;;;;;3.78;3.53;;;;;;;-0.87;86.30;100951.47;5094726;28;20044;-62
2023/01/04 06:52:46;;;;;;;3.65;3.35;;;;;;;-0.78;86.58;100942.03;5095267;28;20048;-62
2023/01/04 06:55:15;;;;;;;6.60;5.88;;;;;;;-0.71;86.59;100940.03;5094660;28;20040;-62
2023/01/04 06:57:44;;;;;;;2.35;1.58;;;;;;;-0.69;86.31;100942.63;5095205;28;20422;-62
2023/01/04 07:00:14;;;;;;;3.00;2.80;;;;;;;-0.73;86.38;100945.72;5094562;28;20044;-62
2023/01/04 07:02:42;;;;;;;7.82;6.60;;;;;;;-0.71;86.56;100939.16;5094786;28;20044;-62
2023/01/04 07:05:31;;;;;;;4.97;4.53;;;;;;;-0.64;86.67;100937.91;5094506;28;20044;-62
2023/01/04 07:08:02;;;;;;;3.17;2.93;;;;;;;-0.55;86.66;100946.88;5094387;28;20040;-62
2023/01/04 07:10:36;;;;;;;7.53;6.70;;;;;;;-0.51;86.56;100938.78;5094311;28;20280;-62
2023/01/04 07:13:05;;;;;;;1.95;1.85;;;;;;;-0.51;86.26;100941.31;5094471;28;20036;-62
2023/01/04 07:15:35;;;;;;;3.00;2.80;;;;;;;-0.44;86.61;100945.94;5094254;28;20040;-63
2023/01/04 07:18:07;;;;;;;1.17;1.17;;;;;;;-0.24;86.72;100947.19;5094490;28;20044;-62
2023/01/04 07:20:36;;;;;;;1.55;1.45;;;;;;;-0.08;86.35;100943.19;5094492;28;20070;-62
2023/01/04 07:23:08;;;;;;;1.85;1.73;;;;;;;0.04;86.14;100952.25;5094150;28;20048;-62
2023/01/04 07:25:37;;;;;;;5.43;4.93;;;;;;;0.22;86.65;100953.34;5094351;28;20056;-62
2023/01/04 07:28:06;;;;;;;9.73;7.00;;;;;;;0.54;86.38;100951.13;5092722;28;20444;-62
2023/01/04 07:30:35;;;;;;;2.33;2.15;;;;;;;0.89;86.48;100949.03;5094014;28;20040;-62
2023/01/04 07:33:04;;;;;;;5.10;2.15;;;;;;;1.19;86.25;100955.81;5094352;28;20044;-62
2023/01/04 07:35:33;;;;;;;2.05;1.95;;;;;;;1.42;86.15;100957.09;5093994;28;20059;-62
2023/01/04 07:38:02;;;;;;;1.23;1.17;;;;;;;1.57;86.00;100959.59;5093392;28;20438;-63
2023/01/04 07:40:33;;;;;;;2.47;2.30;;;;;;;1.69;86.13;100965.31;5094233;28;20044;-63
2023/01/04 07:43:01;;;;;;;3.80;2.35;;;;;;;1.71;85.95;100967.13;5094684;28;20052;-63
2023/01/04 07:45:30;;;;;;;5.45;2.83;;;;;;;1.73;84.85;100967.19;5111912;28;20101;-62
2023/01/04 07:47:59;;;;;;;1.33;1.20;;;;;;;1.73;85.43;100968.06;5103639;28;20118;-63
2023/01/04 07:50:28;;;;;;;1.37;1.27;;;;;;;1.72;85.41;100961.31;5093735;28;20044;-63
2023/01/04 07:52:56;;;;;;;3.92;2.55;;;;;;;1.70;84.70;100967.06;5093549;28;20046;-63
2023/01/04 07:55:25;;;;;;;3.17;2.97;;;;;;;1.68;84.37;100966.94;5093581;28;20040;-63
2023/01/04 07:57:55;;;;;;;10.02;3.60;;;;;;;1.70;84.40;100960.38;5093711;28;20063;-63
2023/01/04 08:00:24;;;;;;;2.15;1.55;;;;;;;1.85;84.64;100957.81;5093591;28;20048;-63
2023/01/04 08:02:53;;;;;;;5.22;4.70;;;;;;;1.97;85.16;100959.34;5093624;28;20040;-63
2023/01/04 08:05:24;;;;;;;1.92;1.83;;;;;;;2.08;84.64;100959.06;5093456;28;20052;-63
2023/01/04 08:07:54;;;;;;;8.35;2.33;;;;;;;2.15;83.98;100974.56;5093467;28;20051;-63
2023/01/04 08:10:23;;;;;;;2.40;2.20;;;;;;;2.20;84.44;100978.19;5093192;28;20044;-64
2023/01/04 08:12:52;;;;;;;1.65;1.55;;;;;;;2.24;84.56;100970.00;5093433;28;20044;-64
2023/01/04 08:15:22;;;;;;;4.03;3.20;;;;;;;2.33;84.49;100964.56;5100213;28;20047;-64
2023/01/04 08:17:51;;;;;;;1.45;1.35;;;;;;;2.40;84.76;100959.94;5113689;28;20055;-64
2023/01/04 08:20:19;;;;;;;1.20;1.15;;;;;;;2.43;84.23;100956.72;5113829;28;20085;-64
2023/01/04 08:22:48;;;;;;;0.85;0.85;;;;;;;2.50;84.31;100949.56;5114035;28;20067;-65
2023/01/04 08:25:17;;;;;;;4.87;2.40;;;;;;;2.61;84.34;100947.59;5114071;28;20088;-64
2023/01/04 08:27:46;;;;;;;1.55;1.45;;;;;;;2.64;84.27;100952.78;5113526;28;20054;-65
2023/01/04 08:30:15;;;;;;;17.97;1.93;;;;;;;2.72;83.81;100952.41;5116216;28;20043;-64
2023/01/04 08:32:45;;;;;;;1.15;1.05;;;;;;;2.79;83.99;100957.75;5117786;28;20055;-64
2023/01/04 08:35:14;;;;;;;4.22;2.15;;;;;;;2.85;84.33;100953.03;5117663;28;20050;-65
2023/01/04 08:37:43;;;;;;;0.75;0.75;;;;;;;2.86;83.76;100949.69;5117640;28;20126;-64
2023/01/04 08:40:12;;;;;;;1.13;1.07;;;;;;;2.93;84.02;100956.81;5117638;28;20036;-65
2023/01/04 08:42:41;;;;;;;2.10;1.92;;;;;;;2.93;83.36;100946.72;5111063;28;20101;-64
2023/01/04 08:45:10;;;;;;;0.87;0.87;;;;;;;2.97;83.81;100943.56;5098284;28;20123;-65
2023/01/04 08:47:39;;;;;;;1.63;1.52;;;;;;;2.94;83.64;100953.47;5105626;28;20051;-66
2023/01/04 08:50:10;;;;;;;2.00;1.90;;;;;;;2.92;83.72;100950.88;5099210;28;20066;-64
2023/01/04 08:52:39;;;;;;;2.22;1.25;;;;;;;2.96;84.14;100954.41;5099286;28;20650;-65
2023/01/04 08:55:08;;;;;;;3.40;3.20;;;;;;;3.06;83.86;100959.13;5096499;28;20494;-65
2023/01/04 08:57:42;;;;;;;5.70;4.53;;;;;;;3.15;83.16;100959.56;5096928;28;20127;-65
2023/01/04 09:00:12;;;;;;;1.52;1.42;;;;;;;3.23;83.12;100958.31;5096814;28;20060;-65
2023/01/04 09:02:40;;;;;;;1.75;1.65;;;;;;;3.33;83.70;100955.44;5097032;28;20101;-65
2023/01/04 09:05:11;;;;;;;2.17;1.98;;;;;;;3.39;83.55;100955.72;5096749;28;20040;-65
2023/01/04 09:07:50;;;;;;;38.10;2.65;;;;;;;3.43;83.46;100952.56;5096940;28;20109;-64
2023/01/04 09:10:19;;;;;;;1.67;1.58;;;;;;;3.53;83.56;100952.19;5096455;28;20097;-63
2023/01/04 09:12:48;;;;;;;0.85;0.85;;;;;;;3.61;83.33;100940.81;5096798;28;20182;-64
2023/01/04 09:15:18;;;;;;;2.92;2.67;;;;;;;3.56;82.91;100933.81;5095181;28;20086;-63
2023/01/04 09:17:46;;;;;;;3.22;3.00;;;;;;;3.64;83.34;100928.34;5096570;28;20047;-63
2023/01/04 09:20:38;;;;;;;1.80;1.70;;;;;;;3.80;82.88;100919.81;5096578;28;20047;-64
2023/01/04 09:23:07;;;;;;;1.20;1.13;;;;;;;3.80;82.53;100914.75;5096491;28;20131;-63
2023/01/04 09:25:40;;;;;;;1.33;1.23;;;;;;;3.90;82.18;100905.16;5095687;28;20040;-63
2023/01/04 09:28:09;;;;;;;1.30;1.20;;;;;;;4.12;82.59;100918.75;5096117;28;20079;-63
2023/01/04 09:30:37;;;;;;;1.55;1.30;;;;;;;4.30;82.04;100915.38;5096343;28;20079;-64
2023/01/04 09:33:06;;;;;;;0.83;0.83;;;;;;;4.34;82.13;100921.44;5096583;28;20367;-63
2023/01/04 09:35:36;;;;;;;7.53;2.85;;;;;;;4.51;81.84;100917.97;5095991;28;20093;-64
2023/01/04 09:38:05;;;;;;;0.90;0.90;;;;;;;4.65;81.92;100914.38;5096412;28;20075;-64
2023/01/04 09:40:44;;;;;;;3.40;2.47;;;;;;;4.71;80.96;100895.25;5095592;28;20040;-64
2023/01/04 09:43:19;;;;;;;1.70;1.60;;;;;;;4.78;81.29;100901.44;5095833;28;20048;-64
2023/01/04 09:45:54;;;;;;;1.33;1.23;;;;;;;4.90;81.12;100896.88;5111305;28;20043;-63
2023/01/04 09:48:27;;;;;;;1.75;1.58;;;;;;;4.94;80.78;100892.84;5117021;28;20094;-64
2023/01/04 09:51:02;;;;;;;1.13;1.02;;;;;;;4.87;80.33;100890.84;5109627;28;20074;-64
2023/01/04 09:53:35;;;;;;;3.22;2.67;;;;;;;4.83;80.02;100894.91;5101527;28;20043;-64
2023/01/04 09:56:10;;;;;;;1.30;1.20;;;;;;;4.99;79.93;100892.19;5095649;28;20043;-64
2023/01/04 09:58:41;;;;;;;1.60;1.50;;;;;;;5.11;80.10;100880.03;5094693;28;20040;-64
2023/01/04 10:01:15;;;;;;;2.53;2.33;;;;;;;5.19;79.90;100866.03;5094785;28;20044;-64
2023/01/04 10:03:53;;;;;;;1.77;1.67;;;;;;;5.35;79.56;100875.13;5100549;28;20039;-64
2023/01/04 10:06:23;;;;;;;1.38;1.15;;;;;;;5.39;79.12;100870.22;5115883;28;20054;-64
2023/01/04 10:08:57;;;;;;;4.22;2.97;;;;;;;5.36;78.72;100870.09;5115832;28;20044;-64
2023/01/04 10:11:38;;;;;;;4.35;2.25;;;;;;;5.47;78.71;100877.25;5115985;28;20055;-63
2023/01/04 10:14:30;;;;;;;5.45;2.97;;;;;;;5.53;78.55;100872.41;5116184;28;20459;-63
2023/01/04 10:17:19;;;;;;;1.20;1.10;;;;;;;5.68;78.18;100862.88;5116051;28;20497;-63
2023/01/04 10:20:32;;;;;;;2.67;1.45;;;;;;;5.79;78.08;100861.59;5114431;27;20071;-63
2023/01/04 10:23:35;;;;;;;2.35;2.15;;;;;;;5.84;78.22;100860.09;5095253;28;20040;-63
2023/01/04 10:26:12;;;;;;;2.22;2.05;;;;;;;5.95;77.99;100851.28;5095776;28;20063;-63
2023/01/04 10:29:04;;;;;;;1.30;1.20;;;;;;;6.00;77.70;100852.28;5095071;28;20132;-63
2023/01/04 10:31:40;;;;;;;2.05;1.17;;;;;;;6.03;77.77;100850.72;5094265;28;20047;-63
2023/01/04 10:34:21;;;;;;;1.83;1.73;;;;;;;6.08;77.66;100840.75;5095603;28;20036;-63
2023/01/04 10:36:54;;;;;;;1.40;1.30;;;;;;;6.12;77.62;100837.50;5096088;28;20486;-62
2023/01/04 10:39:27;;;;;;;0.70;0.70;;;;;;;6.16;77.74;100838.50;5094925;28;20059;-63
2023/01/04 10:42:10;;;;;;;0.45;0.45;;;;;;;6.34;77.36;100844.19;5094978;28;20048;-63
2023/01/04 10:44:50;;;;;;;1.35;1.20;;;;;;;6.37;76.98;100824.91;5094865;28;20127;-63
2023/01/04 10:47:23;;;;;;;;;;;;;;;6.43;77.58;100822.56;5095520;28;20545;-63
2023/01/04 10:49:56;;;;;;;1.17;1.10;;;;;;;6.49;77.15;100821.91;5094615;28;20003;-63
2023/01/04 10:52:31;;;;;;;1.20;1.10;;;;;;;6.54;76.71;100806.03;5094580;28;20090;-63
2023/01/04 10:55:05;;;;;;;3.70;3.38;;;;;;;6.56;76.64;100808.63;5094622;28;20048;-63
2023/01/04 10:57:41;;;;;;;1.70;1.60;;;;;;;6.60;77.07;100801.16;5094566;28;20122;-63
2023/01/04 11:00:16;;;;;;;1.67;1.33;;;;;;;6.64;76.62;100797.94;5094890;28;20490;-63
2023/01/04 11:02:50;;;;;;;0.90;0.90;;;;;;;6.67;76.46;100800.53;5094128;28;20040;-63
2023/01/04 11:05:24;;;;;;;1.50;1.42;;;;;;;6.73;76.65;100800.75;5094936;28;20446;-63
2023/01/04 11:08:00;;;;;;;1.10;1.02;;;;;;;6.59;76.29;100796.06;5095030;28;20135;-63
2023/01/04 11:10:37;;;;;;;2.40;2.13;;;;;;;6.52;76.72;100799.19;5094397;28;20052;-63
2023/01/04 11:13:06;;;;;;;6.28;2.72;;;;;;;6.42;77.00;100798.03;5094368;28;20044;-63
2023/01/04 11:15:35;;;;;;;3.85;2.05;;;;;;;6.40;77.14;100788.66;5094491;28;20119;-63
2023/01/04 11:18:08;;;;;;;1.00;0.95;;;;;;;6.45;77.24;100777.84;5094188;28;20067;-63
2023/01/04 11:20:37;;;;;;;1.85;1.55;;;;;;;6.43;77.00;100764.25;5094297;28;20078;-63
2023/01/04 11:23:12;;;;;;;4.18;3.30;;;;;;;6.37;77.99;100768.25;5094129;28;20123;-62
2023/01/04 11:25:49;;;;;;;2.17;1.85;;;;;;;6.38;77.52;100762.38;5094209;28;20051;-63
2023/01/04 11:28:26;;;;;;;2.28;1.30;;;;;;;6.44;78.13;100752.44;5084271;28;20086;-62
2023/01/04 11:31:05;;;;;;;1.50;1.40;;;;;;;6.55;78.00;100764.63;5094099;28;20044;-63
2023/01/04 11:33:52;;;;;;;4.95;2.60;;;;;;;6.59;78.79;100751.28;5094064;28;20043;-62
2023/01/04 11:36:33;;;;;;;4.53;4.13;;;;;;;6.61;78.27;100749.63;5102693;28;20125;-63
2023/01/04 11:39:02;;;;;;;2.30;2.10;;;;;;;6.63;79.08;100750.53;5109711;28;20050;-63
2023/01/04 11:41:32;;;;;;;3.13;2.75;;;;;;;6.63;79.12;100747.13;5093884;28;20110;-63
2023/01/04 11:44:02;;;;;;;4.55;1.95;;;;;;;6.64;79.18;100729.44;5098302;28;20439;-63
2023/01/04 11:46:32;;;;;;;5.53;3.28;;;;;;;6.64;79.05;100744.66;5102700;28;20115;-63
2023/01/04 11:49:01;;;;;;;2.10;1.77;;;;;;;6.64;79.53;100743.81;5103531;28;20032;-63
2023/01/04 11:51:40;;;;;;;7.05;3.45;;;;;;;6.66;79.13;100732.91;5104761;28;20497;-63
2023/01/04 11:54:26;;;;;;;4.13;3.75;;;;;;;6.66;79.72;100726.94;5103405;28;20048;-63
2023/01/04 11:57:05;;;;;;;3.05;2.38;;;;;;;6.53;79.04;100702.00;5092362;28;20080;-63
2023/01/04 11:59:39;;;;;;;1.50;1.40;;;;;;;6.52;80.31;100708.78;5093717;28;20047;-62
2023/01/04 12:02:22;;;;;;;2.28;2.08;;;;;;;6.57;79.59;100702.16;5093877;28;20505;-63
2023/01/04 12:05:20;;;;;;;4.28;1.95;;;;;;;6.67;79.58;100705.88;5092822;28;20122;-62
2023/01/04 12:07:57;;;;;;;2.05;1.75;;;;;;;6.77;80.12;100699.41;5093929;28;20044;-63
2023/01/04 12:10:28;;;;;;;1.90;1.80;;;;;;;6.75;80.25;100692.59;5093498;28;20044;-63
2023/01/04 12:13:02;;;;;;;1.48;1.27;;;;;;;6.78;80.78;100681.66;5093716;28;20055;-63
2023/01/04 12:15:48;;;;;;;2.63;2.22;;;;;;;6.88;80.40;100663.38;5092138;28;20036;-63
2023/01/04 12:18:23;;;;;;;1.80;1.67;;;;;;;7.24;80.28;100673.72;5093360;28;20130;-63
2023/01/04 12:20:52;;;;;;;1.20;1.13;;;;;;;8.08;79.56;100681.13;5093767;28;20130;-63
2023/01/04 12:23:21;;;;;;;3.42;2.55;;;;;;;8.47;78.40;100670.22;5093412;28;20052;-63
2023/01/04 12:25:51;;;;;;;2.88;2.00;;;;;;;8.63;76.84;100667.22;5093717;28;20040;-62
2023/01/04 12:28:34;;;;;;;1.40;1.30;;;;;;;8.90;76.59;100664.41;5093355;28;20076;-63
2023/01/04 12:31:25;;;;;;;4.13;2.55;;;;;;;9.39;75.71;100665.47;5093722;28;20040;-63
2023/01/04 12:33:55;;;;;;;7.07;2.85;;;;;;;9.29;74.54;100668.66;5093594;28;20101;-63
2023/01/04 12:36:49;;;;;;;3.20;1.60;;;;;;;9.56;73.55;100647.06;5093226;28;20070;-64
2023/01/04 12:39:41;;;;;;;4.78;2.45;;;;;;;10.09;72.85;100636.13;5093265;28;20076;-63
2023/01/04 12:42:23;;;;;;;1.75;1.63;;;;;;;10.53;71.62;100630.06;5093513;28;20146;-65
2023/01/04 12:45:15;;;;;;;2.17;1.98;;;;;;;10.84;70.41;100620.28;5093449;28;20048;-65